Saturday, November 18, 2017, 7:10 AM EST
Back to Local

KBML, Berlin Municipal Airport

Location: Milan, NH, United States Lat: 44.583
Local Time: 7:10 AM EST (12:10 GMT) Lon: -71.183
Time Zone: US/Eastern Elev: 1158 ft

Show me the last for .
Show Decoded

2017-11-18 06:52 METAR KBML 181152Z AUTO 00000KT 10SM FEW110 M11/M12 A2992 RMK AO2 SLP153 I1000
                 I6000 T11111122 11067 21122 58009 =
2017-11-18 05:52 METAR KBML 181052Z AUTO 00000KT 10SM CLR M12/M14 A2995 RMK AO2 SLP166 I1000
                 T11221139 =
2017-11-18 04:52 METAR KBML 180952Z AUTO 00000KT 10SM CLR M11/M12 A2996 RMK AO2 SLP167 T11061117
                 =
2017-11-18 03:52 METAR KBML 180852Z AUTO 00000KT 10SM CLR M09/M11 A2995 RMK AO2 SLP162 T10941111
                 51009 =
2017-11-18 02:52 METAR KBML 180752Z AUTO 35007KT 10SM CLR M07/M10 A2994 RMK AO2 SLP157 T10671100
                 =
2017-11-18 01:52 METAR KBML 180652Z AUTO 07003KT 10SM CLR M08/M10 A2993 RMK AO2 SLP155 T10781100
                 =
2017-11-18 00:52 METAR KBML 180552Z AUTO 36004KT 10SM CLR M08/M11 A2992 RMK AO2 SLP151 T10781106
                 11044 21094 55010 =
2017-11-17 23:52 METAR KBML 180452Z AUTO 00000KT 10SM CLR M09/M11 A2992 RMK AO2 SLP151 T10941111
                 400281094 =
2017-11-17 22:52 METAR KBML 180352Z AUTO 32006KT 10SM CLR M06/M09 A2993 RMK AO2 SLP154 T10561094
                 =
2017-11-17 21:52 METAR KBML 180252Z AUTO VRB03KT 10SM CLR M06/M09 A2995 RMK AO2 SLP160 T10561094
                 56002 =
2017-11-17 20:52 METAR KBML 180152Z AUTO 35004KT 10SM CLR M05/M09 A2995 RMK AO2 SLP159 T10501094
                 =
2017-11-17 19:52 METAR KBML 180052Z AUTO VRB04KT 10SM FEW031 M04/M09 A2995 RMK AO2 SLP159
                 T10441089 =
2017-11-17 18:52 METAR KBML 172352Z AUTO VRB06KT 10SM CLR M04/M09 A2996 RMK AO2 SLP161 60000
                 T10441089 11028 21044 53016 =
2017-11-17 18:29 METAR KBML 172329Z AUTO VRB03KT 10SM SCT030 M04/M09 A2995 RMK AO2 T10441089 =
2017-11-17 17:52 METAR KBML 172252Z AUTO VRB06KT 10SM OVC027 M04/M08 A2993 RMK AO2 SLP152
                 T10441083 =
2017-11-17 17:25 METAR KBML 172225Z AUTO VRB05KT 10SM BKN029 M04/M08 A2993 RMK AO2 T10441083 =
2017-11-17 16:59 METAR KBML 172159Z AUTO VRB04KT 10SM SCT025 M04/M08 A2992 RMK AO2 T10441083 =
2017-11-17 16:52 METAR KBML 172152Z AUTO VRB04KT 10SM BKN027 M04/M08 A2992 RMK AO2 SLP148
                 T10441083 =
2017-11-17 15:52 METAR KBML 172052Z AUTO 27009G19KT 8SM SCT018 OVC025 M04/M07 A2991 RMK AO2 UPE39
                 SLP143 P0000 60000 T10391072 53017 =
2017-11-17 14:52 METAR KBML 171952Z AUTO 28009G19KT 9SM UP OVC016 M03/M07 A2988 RMK AO2
                 UPB1853E23B52SNB34E43 SLP133 P0000 T10331067 =
2017-11-17 13:52 METAR KBML 171852Z AUTO 26010G18KT 8SM BKN016 OVC020 M03/M06 A2986 RMK AO2
                 UPB1757E22SNE1757B00E09B22E46 SLP126 P0000 T10281061 =
2017-11-17 12:52 METAR KBML 171752Z AUTO 6SM -SN OVC016 M03/M06 A2986 RMK AO2 SLP124 P0000 60000
                 T10281056 11011 21028 50001 =
2017-11-17 11:52 METAR KBML 171652Z AUTO 30010G17KT 270V350 6SM -SN OVC017 M02/M06 A2987 RMK AO2
                 UPE46SNB1556E06B08E21B27E39B46 SLP128 P0000 T10221056 =
2017-11-17 10:52 METAR KBML 171552Z AUTO 30010G19KT 7SM UP OVC016 M02/M05 A2985 RMK AO2
                 UPE30B48SNB1456E1459B30E48 SLP123 P0000 T10221050 =
2017-11-17 09:52 METAR KBML 171452Z AUTO 30010G17KT 7SM UP OVC019 M02/M05 A2985 RMK AO2
                 SNB02E17B21E36B38E39B40E51 SLP123 P0000 60000 T10171050 51021 =
2017-11-17 08:52 METAR KBML 171352Z AUTO 31008G20KT 280V350 10SM UP OVC018 M01/M04 A2984 RMK AO2
                 UPB38 SLP118 P0000 T10111044 =
2017-11-17 07:52 METAR KBML 171252Z AUTO VRB05G14KT 10SM OVC021 M01/M04 A2982 RMK AO2 UPB26E28
                 SLP113 P0000 T10111039 =

Support USWX by starting your Amazon purchase here.